sensor_id;sensor_type;location;lat;lon;timestamp;P1;durP1;ratioP1;P2;durP2;ratioP2
56073;SDS011;41950;55.840;37.442;2023-02-17T00:00:09;10.13;;;7.25;;
56073;SDS011;41950;55.840;37.442;2023-02-17T00:02:36;7.70;;;5.80;;
56073;SDS011;41950;55.840;37.442;2023-02-17T00:05:03;9.32;;;6.93;;
56073;SDS011;41950;55.840;37.442;2023-02-17T00:07:30;8.90;;;6.95;;
56073;SDS011;41950;55.840;37.442;2023-02-17T00:09:57;9.43;;;6.60;;
56073;SDS011;41950;55.840;37.442;2023-02-17T00:12:23;9.10;;;6.43;;
56073;SDS011;41950;55.840;37.442;2023-02-17T00:14:49;8.15;;;6.05;;
56073;SDS011;41950;55.840;37.442;2023-02-17T00:17:15;9.30;;;5.93;;
56073;SDS011;41950;55.840;37.442;2023-02-17T00:19:40;9.63;;;6.70;;
56073;SDS011;41950;55.840;37.442;2023-02-17T00:22:06;9.82;;;6.40;;
56073;SDS011;41950;55.840;37.442;2023-02-17T00:24:32;8.80;;;6.43;;
56073;SDS011;41950;55.840;37.442;2023-02-17T00:27:01;8.82;;;6.22;;
56073;SDS011;41950;55.840;37.442;2023-02-17T00:29:27;9.80;;;6.38;;
56073;SDS011;41950;55.840;37.442;2023-02-17T00:31:52;8.02;;;5.63;;
56073;SDS011;41950;55.840;37.442;2023-02-17T00:34:19;9.27;;;5.68;;
56073;SDS011;41950;55.840;37.442;2023-02-17T00:36:44;9.13;;;6.30;;
56073;SDS011;41950;55.840;37.442;2023-02-17T00:39:14;8.43;;;5.68;;
56073;SDS011;41950;55.840;37.442;2023-02-17T00:41:41;8.45;;;6.20;;
56073;SDS011;41950;55.840;37.442;2023-02-17T00:44:09;9.10;;;6.60;;
56073;SDS011;41950;55.840;37.442;2023-02-17T00:46:40;8.73;;;6.20;;
56073;SDS011;41950;55.840;37.442;2023-02-17T00:49:05;8.05;;;6.63;;
56073;SDS011;41950;55.840;37.442;2023-02-17T00:51:31;8.57;;;6.07;;
56073;SDS011;41950;55.840;37.442;2023-02-17T00:53:57;8.15;;;5.75;;
56073;SDS011;41950;55.840;37.442;2023-02-17T00:56:22;7.57;;;5.55;;
56073;SDS011;41950;55.840;37.442;2023-02-17T00:58:48;7.90;;;5.78;;
56073;SDS011;41950;55.840;37.442;2023-02-17T01:01:13;8.27;;;6.13;;
56073;SDS011;41950;55.840;37.442;2023-02-17T01:03:39;8.95;;;5.93;;
56073;SDS011;41950;55.840;37.442;2023-02-17T01:06:07;8.23;;;5.88;;
56073;SDS011;41950;55.840;37.442;2023-02-17T01:08:34;8.55;;;6.53;;
56073;SDS011;41950;55.840;37.442;2023-02-17T01:11:01;9.20;;;5.88;;
56073;SDS011;41950;55.840;37.442;2023-02-17T01:13:26;8.45;;;6.03;;
56073;SDS011;41950;55.840;37.442;2023-02-17T01:15:53;8.27;;;6.22;;
56073;SDS011;41950;55.840;37.442;2023-02-17T01:18:19;8.43;;;5.30;;
56073;SDS011;41950;55.840;37.442;2023-02-17T01:20:47;8.68;;;6.18;;
56073;SDS011;41950;55.840;37.442;2023-02-17T01:23:13;8.95;;;6.45;;
56073;SDS011;41950;55.840;37.442;2023-02-17T01:25:39;7.47;;;5.38;;
56073;SDS011;41950;55.840;37.442;2023-02-17T01:28:07;8.00;;;5.45;;
56073;SDS011;41950;55.840;37.442;2023-02-17T01:30:33;8.65;;;6.10;;
56073;SDS011;41950;55.840;37.442;2023-02-17T01:32:59;8.02;;;6.00;;
56073;SDS011;41950;55.840;37.442;2023-02-17T01:35:25;8.48;;;6.15;;
56073;SDS011;41950;55.840;37.442;2023-02-17T01:37:51;8.93;;;6.50;;
56073;SDS011;41950;55.840;37.442;2023-02-17T01:40:16;8.70;;;6.47;;
56073;SDS011;41950;55.840;37.442;2023-02-17T01:42:42;9.60;;;7.05;;
56073;SDS011;41950;55.840;37.442;2023-02-17T01:50:14;8.32;;;6.40;;
56073;SDS011;41950;55.840;37.442;2023-02-17T01:52:42;7.50;;;5.95;;
56073;SDS011;41950;55.840;37.442;2023-02-17T01:55:10;9.27;;;6.93;;
56073;SDS011;41950;55.840;37.442;2023-02-17T01:57:40;6.97;;;5.22;;
56073;SDS011;41950;55.840;37.442;2023-02-17T02:00:09;8.10;;;5.95;;
56073;SDS011;41950;55.840;37.442;2023-02-17T02:02:36;7.95;;;5.80;;
56073;SDS011;41950;55.840;37.442;2023-02-17T02:05:05;8.38;;;6.50;;
56073;SDS011;41950;55.840;37.442;2023-02-17T02:07:32;8.45;;;6.35;;
56073;SDS011;41950;55.840;37.442;2023-02-17T02:10:00;8.30;;;6.18;;
56073;SDS011;41950;55.840;37.442;2023-02-17T02:12:44;8.57;;;6.25;;
56073;SDS011;41950;55.840;37.442;2023-02-17T02:15:15;8.68;;;6.20;;
56073;SDS011;41950;55.840;37.442;2023-02-17T02:28:13;9.35;;;6.97;;
56073;SDS011;41950;55.840;37.442;2023-02-17T02:33:44;9.90;;;6.47;;
56073;SDS011;41950;55.840;37.442;2023-02-17T02:36:30;8.90;;;6.78;;
56073;SDS011;41950;55.840;37.442;2023-02-17T02:39:05;9.23;;;6.18;;
56073;SDS011;41950;55.840;37.442;2023-02-17T02:41:36;7.93;;;6.18;;
56073;SDS011;41950;55.840;37.442;2023-02-17T02:44:17;7.97;;;5.47;;
56073;SDS011;41950;55.840;37.442;2023-02-17T02:46:44;9.43;;;5.82;;
56073;SDS011;41950;55.840;37.442;2023-02-17T02:49:09;11.10;;;6.57;;
56073;SDS011;41950;55.840;37.442;2023-02-17T02:51:53;8.63;;;5.82;;
56073;SDS011;41950;55.840;37.442;2023-02-17T02:59:55;8.40;;;6.20;;
56073;SDS011;41950;55.840;37.442;2023-02-17T03:02:46;8.45;;;6.00;;
56073;SDS011;41950;55.840;37.442;2023-02-17T03:08:14;9.27;;;6.30;;
56073;SDS011;41950;55.840;37.442;2023-02-17T03:10:48;9.50;;;6.07;;
56073;SDS011;41950;55.840;37.442;2023-02-17T03:13:17;9.95;;;6.28;;
56073;SDS011;41950;55.840;37.442;2023-02-17T03:15:44;8.05;;;6.20;;
56073;SDS011;41950;55.840;37.442;2023-02-17T03:18:11;8.75;;;6.13;;
56073;SDS011;41950;55.840;37.442;2023-02-17T03:20:52;8.85;;;6.25;;
56073;SDS011;41950;55.840;37.442;2023-02-17T03:23:20;8.38;;;6.22;;
56073;SDS011;41950;55.840;37.442;2023-02-17T03:25:46;8.18;;;6.35;;
56073;SDS011;41950;55.840;37.442;2023-02-17T03:28:12;8.30;;;5.75;;
56073;SDS011;41950;55.840;37.442;2023-02-17T03:30:38;8.68;;;6.35;;
56073;SDS011;41950;55.840;37.442;2023-02-17T03:33:04;10.00;;;6.10;;
56073;SDS011;41950;55.840;37.442;2023-02-17T03:35:30;8.40;;;6.07;;
56073;SDS011;41950;55.840;37.442;2023-02-17T03:37:56;7.40;;;5.40;;
56073;SDS011;41950;55.840;37.442;2023-02-17T03:40:21;8.35;;;5.82;;
56073;SDS011;41950;55.840;37.442;2023-02-17T03:42:47;7.90;;;6.03;;
56073;SDS011;41950;55.840;37.442;2023-02-17T03:45:13;9.98;;;6.57;;
56073;SDS011;41950;55.840;37.442;2023-02-17T03:47:38;8.32;;;5.82;;
56073;SDS011;41950;55.840;37.442;2023-02-17T03:50:05;8.73;;;6.07;;
56073;SDS011;41950;55.840;37.442;2023-02-17T03:52:31;7.55;;;5.25;;
56073;SDS011;41950;55.840;37.442;2023-02-17T03:54:56;8.43;;;6.03;;
56073;SDS011;41950;55.840;37.442;2023-02-17T03:57:22;8.60;;;6.57;;
56073;SDS011;41950;55.840;37.442;2023-02-17T03:59:48;8.25;;;6.80;;
56073;SDS011;41950;55.840;37.442;2023-02-17T04:02:13;8.68;;;5.97;;
56073;SDS011;41950;55.840;37.442;2023-02-17T04:04:39;8.00;;;5.95;;
56073;SDS011;41950;55.840;37.442;2023-02-17T04:07:05;8.65;;;5.80;;
56073;SDS011;41950;55.840;37.442;2023-02-17T04:09:30;8.15;;;6.25;;
56073;SDS011;41950;55.840;37.442;2023-02-17T04:11:56;8.00;;;6.00;;
56073;SDS011;41950;55.840;37.442;2023-02-17T04:14:21;8.68;;;6.07;;
56073;SDS011;41950;55.840;37.442;2023-02-17T04:16:47;8.45;;;6.35;;
56073;SDS011;41950;55.840;37.442;2023-02-17T04:19:13;9.40;;;6.65;;
56073;SDS011;41950;55.840;37.442;2023-02-17T04:21:38;9.68;;;6.90;;
56073;SDS011;41950;55.840;37.442;2023-02-17T04:24:04;9.40;;;6.72;;
56073;SDS011;41950;55.840;37.442;2023-02-17T04:26:30;8.70;;;6.45;;
56073;SDS011;41950;55.840;37.442;2023-02-17T04:28:56;9.27;;;6.22;;
56073;SDS011;41950;55.840;37.442;2023-02-17T04:31:21;9.98;;;7.20;;
56073;SDS011;41950;55.840;37.442;2023-02-17T04:33:48;10.15;;;8.07;;
56073;SDS011;41950;55.840;37.442;2023-02-17T04:36:13;10.15;;;7.57;;
56073;SDS011;41950;55.840;37.442;2023-02-17T04:38:39;10.10;;;7.68;;
56073;SDS011;41950;55.840;37.442;2023-02-17T04:41:05;9.50;;;7.70;;
56073;SDS011;41950;55.840;37.442;2023-02-17T04:43:31;9.98;;;7.38;;
56073;SDS011;41950;55.840;37.442;2023-02-17T04:45:57;10.77;;;7.75;;
56073;SDS011;41950;55.840;37.442;2023-02-17T04:48:23;8.23;;;5.40;;
56073;SDS011;41950;55.840;37.442;2023-02-17T04:50:50;10.80;;;7.40;;
56073;SDS011;41950;55.840;37.442;2023-02-17T04:53:17;10.00;;;6.65;;
56073;SDS011;41950;55.840;37.442;2023-02-17T04:55:43;9.05;;;6.82;;
56073;SDS011;41950;55.840;37.442;2023-02-17T04:58:11;9.32;;;6.32;;
56073;SDS011;41950;55.840;37.442;2023-02-17T05:00:37;9.20;;;6.65;;
56073;SDS011;41950;55.840;37.442;2023-02-17T05:03:03;11.35;;;6.55;;
56073;SDS011;41950;55.840;37.442;2023-02-17T05:05:28;11.43;;;7.45;;
56073;SDS011;41950;55.840;37.442;2023-02-17T05:07:55;9.52;;;6.50;;
56073;SDS011;41950;55.840;37.442;2023-02-17T05:10:20;10.73;;;7.65;;
56073;SDS011;41950;55.840;37.442;2023-02-17T05:12:46;8.88;;;7.15;;
56073;SDS011;41950;55.840;37.442;2023-02-17T05:15:12;10.00;;;7.40;;
56073;SDS011;41950;55.840;37.442;2023-02-17T05:17:37;9.45;;;7.18;;
56073;SDS011;41950;55.840;37.442;2023-02-17T05:20:04;9.38;;;7.30;;
56073;SDS011;41950;55.840;37.442;2023-02-17T05:22:30;10.25;;;6.97;;
56073;SDS011;41950;55.840;37.442;2023-02-17T05:24:56;10.00;;;6.97;;
56073;SDS011;41950;55.840;37.442;2023-02-17T05:27:23;10.05;;;6.88;;
56073;SDS011;41950;55.840;37.442;2023-02-17T05:29:49;9.15;;;6.13;;
56073;SDS011;41950;55.840;37.442;2023-02-17T05:32:16;13.63;;;7.55;;
56073;SDS011;41950;55.840;37.442;2023-02-17T05:34:41;11.38;;;6.82;;
56073;SDS011;41950;55.840;37.442;2023-02-17T05:37:07;11.55;;;7.75;;
56073;SDS011;41950;55.840;37.442;2023-02-17T05:39:33;11.02;;;8.10;;
56073;SDS011;41950;55.840;37.442;2023-02-17T05:41:59;11.02;;;8.02;;
56073;SDS011;41950;55.840;37.442;2023-02-17T05:44:25;11.93;;;8.38;;
56073;SDS011;41950;55.840;37.442;2023-02-17T05:46:50;10.50;;;7.80;;
56073;SDS011;41950;55.840;37.442;2023-02-17T05:49:16;11.93;;;8.32;;
56073;SDS011;41950;55.840;37.442;2023-02-17T05:51:41;11.23;;;8.50;;
56073;SDS011;41950;55.840;37.442;2023-02-17T05:54:07;13.55;;;9.25;;
56073;SDS011;41950;55.840;37.442;2023-02-17T05:56:33;11.95;;;8.57;;
56073;SDS011;41950;55.840;37.442;2023-02-17T05:58:58;12.13;;;8.55;;
56073;SDS011;41950;55.840;37.442;2023-02-17T06:01:25;11.00;;;8.20;;
56073;SDS011;41950;55.840;37.442;2023-02-17T06:03:51;12.23;;;8.98;;
56073;SDS011;41950;55.840;37.442;2023-02-17T06:06:17;12.60;;;8.90;;
56073;SDS011;41950;55.840;37.442;2023-02-17T06:08:42;13.32;;;9.55;;
56073;SDS011;41950;55.840;37.442;2023-02-17T06:11:08;12.85;;;9.25;;
56073;SDS011;41950;55.840;37.442;2023-02-17T06:13:34;13.15;;;8.77;;
56073;SDS011;41950;55.840;37.442;2023-02-17T06:15:59;13.15;;;9.50;;
56073;SDS011;41950;55.840;37.442;2023-02-17T06:18:25;12.25;;;8.63;;
56073;SDS011;41950;55.840;37.442;2023-02-17T06:20:53;11.65;;;8.68;;
56073;SDS011;41950;55.840;37.442;2023-02-17T06:23:20;12.23;;;7.95;;
56073;SDS011;41950;55.840;37.442;2023-02-17T06:25:45;12.40;;;8.40;;
56073;SDS011;41950;55.840;37.442;2023-02-17T06:28:11;11.18;;;7.93;;
56073;SDS011;41950;55.840;37.442;2023-02-17T06:30:37;10.40;;;7.78;;
56073;SDS011;41950;55.840;37.442;2023-02-17T06:33:02;12.30;;;8.63;;
56073;SDS011;41950;55.840;37.442;2023-02-17T06:35:28;12.13;;;9.05;;
56073;SDS011;41950;55.840;37.442;2023-02-17T06:37:53;11.18;;;8.50;;
56073;SDS011;41950;55.840;37.442;2023-02-17T06:40:19;12.18;;;8.68;;
56073;SDS011;41950;55.840;37.442;2023-02-17T06:42:45;10.57;;;8.02;;
56073;SDS011;41950;55.840;37.442;2023-02-17T06:45:10;13.13;;;9.20;;
56073;SDS011;41950;55.840;37.442;2023-02-17T06:47:36;11.80;;;8.50;;
56073;SDS011;41950;55.840;37.442;2023-02-17T06:50:02;10.85;;;8.35;;
56073;SDS011;41950;55.840;37.442;2023-02-17T06:52:29;12.52;;;9.32;;
56073;SDS011;41950;55.840;37.442;2023-02-17T06:54:55;12.68;;;9.65;;
56073;SDS011;41950;55.840;37.442;2023-02-17T06:57:21;12.30;;;9.68;;
56073;SDS011;41950;55.840;37.442;2023-02-17T06:59:46;13.25;;;10.10;;
56073;SDS011;41950;55.840;37.442;2023-02-17T07:02:12;12.63;;;9.55;;
56073;SDS011;41950;55.840;37.442;2023-02-17T07:04:39;13.50;;;9.55;;
56073;SDS011;41950;55.840;37.442;2023-02-17T07:07:05;15.45;;;10.43;;
56073;SDS011;41950;55.840;37.442;2023-02-17T07:09:32;14.07;;;10.25;;
56073;SDS011;41950;55.840;37.442;2023-02-17T07:11:58;13.82;;;10.68;;
56073;SDS011;41950;55.840;37.442;2023-02-17T07:14:24;14.90;;;10.40;;
56073;SDS011;41950;55.840;37.442;2023-02-17T07:16:50;14.25;;;9.50;;
56073;SDS011;41950;55.840;37.442;2023-02-17T07:19:16;13.88;;;10.55;;
56073;SDS011;41950;55.840;37.442;2023-02-17T07:21:42;13.70;;;9.65;;
56073;SDS011;41950;55.840;37.442;2023-02-17T07:24:08;13.38;;;9.73;;
56073;SDS011;41950;55.840;37.442;2023-02-17T07:26:35;15.50;;;9.50;;
56073;SDS011;41950;55.840;37.442;2023-02-17T07:29:02;13.38;;;9.63;;
56073;SDS011;41950;55.840;37.442;2023-02-17T07:31:28;13.63;;;8.82;;
56073;SDS011;41950;55.840;37.442;2023-02-17T07:33:54;12.48;;;9.90;;
56073;SDS011;41950;55.840;37.442;2023-02-17T07:36:20;12.23;;;9.35;;
56073;SDS011;41950;55.840;37.442;2023-02-17T07:38:46;12.43;;;9.27;;
56073;SDS011;41950;55.840;37.442;2023-02-17T07:41:13;14.15;;;9.30;;
56073;SDS011;41950;55.840;37.442;2023-02-17T07:43:40;14.93;;;9.52;;
56073;SDS011;41950;55.840;37.442;2023-02-17T07:46:07;11.98;;;8.63;;
56073;SDS011;41950;55.840;37.442;2023-02-17T07:48:34;11.95;;;9.05;;
56073;SDS011;41950;55.840;37.442;2023-02-17T07:51:04;13.05;;;8.70;;
56073;SDS011;41950;55.840;37.442;2023-02-17T07:53:31;12.15;;;9.32;;
56073;SDS011;41950;55.840;37.442;2023-02-17T07:55:56;13.45;;;9.48;;
56073;SDS011;41950;55.840;37.442;2023-02-17T07:58:22;11.98;;;8.68;;
56073;SDS011;41950;55.840;37.442;2023-02-17T08:00:48;12.68;;;9.18;;
56073;SDS011;41950;55.840;37.442;2023-02-17T08:03:13;13.25;;;9.30;;
56073;SDS011;41950;55.840;37.442;2023-02-17T08:05:39;11.90;;;9.52;;
56073;SDS011;41950;55.840;37.442;2023-02-17T08:08:08;12.70;;;9.77;;
56073;SDS011;41950;55.840;37.442;2023-02-17T08:10:52;14.13;;;9.57;;
56073;SDS011;41950;55.840;37.442;2023-02-17T08:13:36;14.02;;;9.13;;
56073;SDS011;41950;55.840;37.442;2023-02-17T08:16:02;11.80;;;8.70;;
56073;SDS011;41950;55.840;37.442;2023-02-17T08:18:28;12.93;;;8.68;;
56073;SDS011;41950;55.840;37.442;2023-02-17T08:20:54;12.50;;;8.52;;
56073;SDS011;41950;55.840;37.442;2023-02-17T08:23:19;13.65;;;10.45;;
56073;SDS011;41950;55.840;37.442;2023-02-17T08:25:45;14.63;;;11.18;;
56073;SDS011;41950;55.840;37.442;2023-02-17T08:28:11;15.88;;;11.88;;
56073;SDS011;41950;55.840;37.442;2023-02-17T08:30:37;15.88;;;10.32;;
56073;SDS011;41950;55.840;37.442;2023-02-17T08:33:04;12.43;;;9.40;;
56073;SDS011;41950;55.840;37.442;2023-02-17T08:35:30;12.02;;;8.73;;
56073;SDS011;41950;55.840;37.442;2023-02-17T08:37:56;13.15;;;9.90;;
56073;SDS011;41950;55.840;37.442;2023-02-17T08:40:22;12.73;;;10.02;;
56073;SDS011;41950;55.840;37.442;2023-02-17T08:42:48;10.85;;;8.73;;
56073;SDS011;41950;55.840;37.442;2023-02-17T08:45:14;12.57;;;7.95;;
56073;SDS011;41950;55.840;37.442;2023-02-17T08:47:40;10.98;;;7.60;;
56073;SDS011;41950;55.840;37.442;2023-02-17T08:50:07;10.38;;;7.20;;
56073;SDS011;41950;55.840;37.442;2023-02-17T08:52:34;9.50;;;6.78;;
56073;SDS011;41950;55.840;37.442;2023-02-17T08:55:01;9.07;;;6.65;;
56073;SDS011;41950;55.840;37.442;2023-02-17T08:57:28;9.18;;;6.32;;
56073;SDS011;41950;55.840;37.442;2023-02-17T08:59:54;9.40;;;7.05;;
56073;SDS011;41950;55.840;37.442;2023-02-17T09:02:20;9.50;;;7.05;;
56073;SDS011;41950;55.840;37.442;2023-02-17T09:04:45;10.18;;;7.85;;
56073;SDS011;41950;55.840;37.442;2023-02-17T09:07:12;9.52;;;7.35;;
56073;SDS011;41950;55.840;37.442;2023-02-17T09:09:39;10.68;;;7.85;;
56073;SDS011;41950;55.840;37.442;2023-02-17T09:12:05;9.80;;;7.32;;
56073;SDS011;41950;55.840;37.442;2023-02-17T09:14:31;10.57;;;7.57;;
56073;SDS011;41950;55.840;37.442;2023-02-17T09:16:57;11.50;;;8.65;;
56073;SDS011;41950;55.840;37.442;2023-02-17T09:19:22;11.63;;;8.25;;
56073;SDS011;41950;55.840;37.442;2023-02-17T09:21:48;10.18;;;7.90;;
56073;SDS011;41950;55.840;37.442;2023-02-17T09:24:14;11.82;;;7.47;;
56073;SDS011;41950;55.840;37.442;2023-02-17T09:26:40;12.30;;;8.27;;
56073;SDS011;41950;55.840;37.442;2023-02-17T09:29:06;11.27;;;7.70;;
56073;SDS011;41950;55.840;37.442;2023-02-17T09:31:32;12.50;;;8.60;;
56073;SDS011;41950;55.840;37.442;2023-02-17T09:33:59;10.07;;;7.50;;
56073;SDS011;41950;55.840;37.442;2023-02-17T09:36:25;12.68;;;8.32;;
56073;SDS011;41950;55.840;37.442;2023-02-17T09:38:56;10.60;;;7.80;;
56073;SDS011;41950;55.840;37.442;2023-02-17T09:44:00;9.52;;;6.60;;
56073;SDS011;41950;55.840;37.442;2023-02-17T09:46:31;8.27;;;6.35;;
56073;SDS011;41950;55.840;37.442;2023-02-17T09:49:03;10.40;;;7.05;;
56073;SDS011;41950;55.840;37.442;2023-02-17T09:51:36;10.10;;;6.93;;
56073;SDS011;41950;55.840;37.442;2023-02-17T09:54:46;12.00;;;8.05;;
56073;SDS011;41950;55.840;37.442;2023-02-17T09:57:27;10.85;;;7.15;;
56073;SDS011;41950;55.840;37.442;2023-02-17T10:00:16;10.50;;;7.57;;
56073;SDS011;41950;55.840;37.442;2023-02-17T10:02:50;11.27;;;7.85;;
56073;SDS011;41950;55.840;37.442;2023-02-17T10:05:42;11.82;;;8.10;;
56073;SDS011;41950;55.840;37.442;2023-02-17T10:08:31;10.25;;;7.57;;
56073;SDS011;41950;55.840;37.442;2023-02-17T10:13:50;9.93;;;7.40;;
56073;SDS011;41950;55.840;37.442;2023-02-17T10:16:26;9.57;;;6.90;;
56073;SDS011;41950;55.840;37.442;2023-02-17T10:18:58;13.45;;;7.97;;
56073;SDS011;41950;55.840;37.442;2023-02-17T10:21:28;9.52;;;7.20;;
56073;SDS011;41950;55.840;37.442;2023-02-17T10:26:29;9.95;;;7.00;;
56073;SDS011;41950;55.840;37.442;2023-02-17T10:39:52;12.23;;;9.77;;
56073;SDS011;41950;55.840;37.442;2023-02-17T10:44:47;11.70;;;9.18;;
56073;SDS011;41950;55.840;37.442;2023-02-17T10:47:15;12.95;;;9.18;;
56073;SDS011;41950;55.840;37.442;2023-02-17T10:49:43;12.73;;;9.35;;
56073;SDS011;41950;55.840;37.442;2023-02-17T10:55:04;13.70;;;9.63;;
56073;SDS011;41950;55.840;37.442;2023-02-17T10:57:36;12.47;;;9.43;;
56073;SDS011;41950;55.840;37.442;2023-02-17T11:00:05;11.57;;;8.50;;
56073;SDS011;41950;55.840;37.442;2023-02-17T11:02:46;11.85;;;9.13;;
56073;SDS011;41950;55.840;37.442;2023-02-17T11:08:20;14.43;;;9.40;;
56073;SDS011;41950;55.840;37.442;2023-02-17T11:11:03;11.75;;;7.82;;
56073;SDS011;41950;55.840;37.442;2023-02-17T11:19:34;13.68;;;10.40;;
56073;SDS011;41950;55.840;37.442;2023-02-17T11:22:01;12.82;;;9.85;;
56073;SDS011;41950;55.840;37.442;2023-02-17T11:24:29;14.73;;;10.25;;
56073;SDS011;41950;55.840;37.442;2023-02-17T11:27:18;13.43;;;9.63;;
56073;SDS011;41950;55.840;37.442;2023-02-17T11:29:48;13.40;;;10.48;;
56073;SDS011;41950;55.840;37.442;2023-02-17T11:32:13;19.65;;;10.00;;
56073;SDS011;41950;55.840;37.442;2023-02-17T11:34:40;14.45;;;11.00;;
56073;SDS011;41950;55.840;37.442;2023-02-17T11:39:40;16.13;;;11.13;;
56073;SDS011;41950;55.840;37.442;2023-02-17T11:42:20;14.13;;;10.48;;
56073;SDS011;41950;55.840;37.442;2023-02-17T11:44:50;16.85;;;11.07;;
56073;SDS011;41950;55.840;37.442;2023-02-17T11:52:36;13.03;;;9.73;;
56073;SDS011;41950;55.840;37.442;2023-02-17T12:03:20;14.45;;;11.00;;
56073;SDS011;41950;55.840;37.442;2023-02-17T12:11:41;14.38;;;10.85;;
56073;SDS011;41950;55.840;37.442;2023-02-17T12:27:17;17.75;;;13.18;;
56073;SDS011;41950;55.840;37.442;2023-02-17T12:35:13;19.80;;;13.07;;
56073;SDS011;41950;55.840;37.442;2023-02-17T12:37:52;16.05;;;11.85;;
56073;SDS011;41950;55.840;37.442;2023-02-17T12:40:32;18.95;;;13.98;;
56073;SDS011;41950;55.840;37.442;2023-02-17T12:45:47;16.30;;;11.65;;
56073;SDS011;41950;55.840;37.442;2023-02-17T12:51:02;20.52;;;13.25;;
56073;SDS011;41950;55.840;37.442;2023-02-17T12:53:52;18.48;;;12.93;;
56073;SDS011;41950;55.840;37.442;2023-02-17T12:56:51;18.20;;;13.40;;
56073;SDS011;41950;55.840;37.442;2023-02-17T12:59:33;19.70;;;12.90;;
56073;SDS011;41950;55.840;37.442;2023-02-17T13:02:05;20.10;;;14.00;;
56073;SDS011;41950;55.840;37.442;2023-02-17T13:04:32;19.58;;;13.95;;
56073;SDS011;41950;55.840;37.442;2023-02-17T13:07:05;18.65;;;14.35;;
56073;SDS011;41950;55.840;37.442;2023-02-17T13:09:53;19.58;;;13.70;;
56073;SDS011;41950;55.840;37.442;2023-02-17T13:14:50;16.60;;;10.57;;
56073;SDS011;41950;55.840;37.442;2023-02-17T13:18:00;20.17;;;14.55;;
56073;SDS011;41950;55.840;37.442;2023-02-17T13:22:43;20.00;;;13.73;;
56073;SDS011;41950;55.840;37.442;2023-02-17T13:25:10;19.92;;;13.35;;
56073;SDS011;41950;55.840;37.442;2023-02-17T13:27:39;17.67;;;13.70;;
56073;SDS011;41950;55.840;37.442;2023-02-17T13:32:46;19.65;;;13.82;;
56073;SDS011;41950;55.840;37.442;2023-02-17T13:37:52;19.23;;;13.32;;
56073;SDS011;41950;55.840;37.442;2023-02-17T13:50:52;18.00;;;13.50;;
56073;SDS011;41950;55.840;37.442;2023-02-17T13:53:29;18.52;;;13.50;;
56073;SDS011;41950;55.840;37.442;2023-02-17T13:56:00;18.30;;;12.32;;
56073;SDS011;41950;55.840;37.442;2023-02-17T13:58:31;19.77;;;12.80;;
56073;SDS011;41950;55.840;37.442;2023-02-17T14:00:59;19.05;;;13.00;;
56073;SDS011;41950;55.840;37.442;2023-02-17T14:06:03;17.42;;;12.73;;
56073;SDS011;41950;55.840;37.442;2023-02-17T14:08:33;18.33;;;13.23;;
56073;SDS011;41950;55.840;37.442;2023-02-17T14:11:22;17.40;;;12.90;;
56073;SDS011;41950;55.840;37.442;2023-02-17T14:13:49;16.45;;;12.20;;
56073;SDS011;41950;55.840;37.442;2023-02-17T14:16:33;18.45;;;12.80;;
56073;SDS011;41950;55.840;37.442;2023-02-17T14:19:02;17.17;;;13.75;;
56073;SDS011;41950;55.840;37.442;2023-02-17T14:21:37;19.00;;;13.60;;
56073;SDS011;41950;55.840;37.442;2023-02-17T14:24:05;17.83;;;12.50;;
56073;SDS011;41950;55.840;37.442;2023-02-17T14:29:07;18.40;;;13.10;;
56073;SDS011;41950;55.840;37.442;2023-02-17T14:31:50;19.20;;;14.00;;
56073;SDS011;41950;55.840;37.442;2023-02-17T14:36:51;18.45;;;13.82;;
56073;SDS011;41950;55.840;37.442;2023-02-17T14:39:17;18.65;;;13.02;;
56073;SDS011;41950;55.840;37.442;2023-02-17T14:41:43;18.77;;;13.57;;
56073;SDS011;41950;55.840;37.442;2023-02-17T14:44:08;16.92;;;12.52;;
56073;SDS011;41950;55.840;37.442;2023-02-17T14:46:34;16.90;;;13.32;;
56073;SDS011;41950;55.840;37.442;2023-02-17T14:49:00;16.27;;;12.88;;
56073;SDS011;41950;55.840;37.442;2023-02-17T14:51:31;18.17;;;13.18;;
56073;SDS011;41950;55.840;37.442;2023-02-17T14:54:00;16.63;;;12.68;;
56073;SDS011;41950;55.840;37.442;2023-02-17T14:56:32;18.05;;;12.65;;
56073;SDS011;41950;55.840;37.442;2023-02-17T14:59:00;14.75;;;11.52;;
56073;SDS011;41950;55.840;37.442;2023-02-17T15:01:26;15.35;;;10.77;;
56073;SDS011;41950;55.840;37.442;2023-02-17T15:03:52;15.18;;;11.90;;
56073;SDS011;41950;55.840;37.442;2023-02-17T15:08:46;17.02;;;11.45;;
56073;SDS011;41950;55.840;37.442;2023-02-17T15:11:19;16.77;;;11.98;;
56073;SDS011;41950;55.840;37.442;2023-02-17T15:13:54;16.17;;;11.73;;
56073;SDS011;41950;55.840;37.442;2023-02-17T15:16:20;15.05;;;10.75;;
56073;SDS011;41950;55.840;37.442;2023-02-17T15:18:45;16.92;;;12.30;;
56073;SDS011;41950;55.840;37.442;2023-02-17T15:21:27;14.80;;;11.57;;
56073;SDS011;41950;55.840;37.442;2023-02-17T15:23:56;14.18;;;10.27;;
56073;SDS011;41950;55.840;37.442;2023-02-17T15:26:23;14.60;;;9.18;;
56073;SDS011;41950;55.840;37.442;2023-02-17T15:28:49;16.77;;;10.80;;
56073;SDS011;41950;55.840;37.442;2023-02-17T15:31:16;16.83;;;11.07;;
56073;SDS011;41950;55.840;37.442;2023-02-17T15:33:48;15.68;;;11.45;;
56073;SDS011;41950;55.840;37.442;2023-02-17T15:36:21;15.80;;;11.30;;
56073;SDS011;41950;55.840;37.442;2023-02-17T15:38:47;16.88;;;9.80;;
56073;SDS011;41950;55.840;37.442;2023-02-17T15:41:13;17.20;;;11.18;;
56073;SDS011;41950;55.840;37.442;2023-02-17T15:43:41;16.27;;;11.25;;
56073;SDS011;41950;55.840;37.442;2023-02-17T15:46:11;15.13;;;10.80;;
56073;SDS011;41950;55.840;37.442;2023-02-17T15:48:39;15.50;;;11.52;;
56073;SDS011;41950;55.840;37.442;2023-02-17T15:51:05;15.77;;;11.57;;
56073;SDS011;41950;55.840;37.442;2023-02-17T15:53:33;16.90;;;10.90;;
56073;SDS011;41950;55.840;37.442;2023-02-17T15:55:59;14.88;;;10.10;;
56073;SDS011;41950;55.840;37.442;2023-02-17T15:58:25;14.25;;;9.45;;
56073;SDS011;41950;55.840;37.442;2023-02-17T16:00:52;15.70;;;11.02;;
56073;SDS011;41950;55.840;37.442;2023-02-17T16:03:24;14.52;;;10.77;;
56073;SDS011;41950;55.840;37.442;2023-02-17T16:05:50;15.18;;;10.70;;
56073;SDS011;41950;55.840;37.442;2023-02-17T16:08:17;13.98;;;10.30;;
56073;SDS011;41950;55.840;37.442;2023-02-17T16:10:43;13.55;;;9.80;;
56073;SDS011;41950;55.840;37.442;2023-02-17T16:13:11;13.63;;;8.77;;
56073;SDS011;41950;55.840;37.442;2023-02-17T16:15:39;14.32;;;10.90;;
56073;SDS011;41950;55.840;37.442;2023-02-17T16:18:09;14.63;;;9.25;;
56073;SDS011;41950;55.840;37.442;2023-02-17T16:20:46;16.65;;;11.00;;
56073;SDS011;41950;55.840;37.442;2023-02-17T16:23:12;16.15;;;11.15;;
56073;SDS011;41950;55.840;37.442;2023-02-17T16:25:37;13.48;;;10.32;;
56073;SDS011;41950;55.840;37.442;2023-02-17T16:28:07;17.45;;;11.77;;
56073;SDS011;41950;55.840;37.442;2023-02-17T16:30:38;17.33;;;11.45;;
56073;SDS011;41950;55.840;37.442;2023-02-17T16:33:04;15.35;;;10.52;;
56073;SDS011;41950;55.840;37.442;2023-02-17T16:35:30;15.73;;;10.70;;
56073;SDS011;41950;55.840;37.442;2023-02-17T16:38:03;16.52;;;10.75;;
56073;SDS011;41950;55.840;37.442;2023-02-17T16:40:32;21.40;;;11.77;;
56073;SDS011;41950;55.840;37.442;2023-02-17T16:43:00;17.90;;;11.93;;
56073;SDS011;41950;55.840;37.442;2023-02-17T16:45:27;18.17;;;11.65;;